Bad Axe, MI (48413)

12:05 AM EDT on July 30, 2016 (GMT -0400)
Thumb sunrise side | | Change Station

Elev 758 ft 43.79 °N, 83.00 °W | Updated 13 minutes ago

Mostly Cloudy
Mostly Cloudy
66.2 °F
Feels Like 66.2 °F
N
2.2
Wind Variable Wind from NE

Today
High -- | Low -- °F
--% Chance of Precip.
Yesterday
High -- | Low -- °F
Precip. -- in
Pressure 30.04 in
Visibility 10.0 miles
Clouds Mostly Cloudy 11000 ft
Dew Point 57 °F
Humidity 73%
Rainfall in
Snow Depth Not available.
6:19 AM 8:57 PM
Waning Crescent, 16% visible
METAR KBAX 300354Z AUTO 04005KT 10SM BKN110 19/15 A3004 RMK AO2 T01880145
Pressure 30.04 in
Visibility 10.0 miles
Clouds Mostly Cloudy 11000 ft
Dew Point 57 °F
Humidity 73%
Rainfall in
Snow Depth Not available.
6:19 AM 8:57 PM
Waning Crescent, 16% visible
METAR KBAX 300354Z AUTO 04005KT 10SM BKN110 19/15 A3004 RMK AO2 T01880145

10-Day Weather Forecast

Almanac

Astronomy

Jul. 30, 2016 Rise Set
Actual Time
Civil Twilight
Nautical Twilight
Astronomical Twilight
Moon
Length of Visible Light
Length of Day
Tomorrow will be .
, % of the Moon is Illuminated

Today's Extremes

State Highs State Lows

Community

WunderPhotos

Upload Photos

1,928,500 photos uploaded!

WunderBlog® & News

Nearby

Air Quality

  Air Quality AQ Index Pollutant
Not available.

Snow Depth

Station Depth Elevation

Earthquake Activity

City Distance Mag. Time & Date
Minimum magnitude displayed is 2.5.

Coastal Water Temperatures

Place Temperature

Stations

Nearby Weather Stations

Station Location Temp. Windchill Dew Point Humidity Wind Precip. Elev Updated Type
                   

Watches & Warnings

There are currently no watches in effect.